Time;durP1;ratioP1;P1;durP2;ratioP2;P2;SDS_P1;SDS_P2;PMS_P1;PMS_P2;Temp;Humidity;BMP_temperature;BMP_pressure;BME280_temperature;BME280_humidity;BME280_pressure;Samples;Min_cycle;Max_cycle;Signal;HPM_P1;HPM_P2
2022/11/16 00:00:18;;;;;;;39.60;20.80;;;5.80;99.90;;;;;;5032539;28;20634;-69
2022/11/16 00:02:43;;;;;;;42.27;19.67;;;5.80;99.90;;;;;;5032824;28;20168;-70
2022/11/16 00:05:09;;;;;;;42.30;22.73;;;5.80;99.90;;;;;;5032208;28;20168;-69
2022/11/16 00:07:35;;;;;;;34.90;19.33;;;5.70;99.90;;;;;;5033558;28;20179;-70
2022/11/16 00:10:00;;;;;;;42.67;21.50;;;5.60;99.90;;;;;;5017327;28;20231;-69
2022/11/16 00:12:26;;;;;;;35.37;20.07;;;5.60;99.90;;;;;;5018492;28;20658;-69
2022/11/16 00:14:51;;;;;;;42.50;20.50;;;5.60;99.90;;;;;;5030183;28;20180;-70
2022/11/16 00:17:17;;;;;;;42.30;22.13;;;5.60;99.90;;;;;;5023203;28;20532;-70
2022/11/16 00:19:43;;;;;;;38.63;19.57;;;5.60;99.90;;;;;;5032012;28;20202;-69
2022/11/16 00:22:08;;;;;;;35.07;20.30;;;5.50;99.90;;;;;;5033180;28;20175;-69
2022/11/16 00:24:34;;;;;;;30.50;16.93;;;5.50;99.90;;;;;;5032126;28;20535;-70
2022/11/16 00:26:59;;;;;;;44.50;19.67;;;5.50;99.90;;;;;;5032893;28;20175;-69
2022/11/16 00:29:26;;;;;;;44.97;20.70;;;5.50;99.90;;;;;;5032009;28;20179;-70
2022/11/16 00:31:52;;;;;;;38.20;20.47;;;5.50;99.90;;;;;;5029627;28;20191;-69
2022/11/16 00:34:18;;;;;;;37.63;20.20;;;5.40;99.90;;;;;;5016938;28;20471;-68
2022/11/16 00:36:44;;;;;;;39.87;21.40;;;5.40;99.90;;;;;;5031551;28;20426;-69
2022/11/16 00:39:14;;;;;;;36.60;20.47;;;5.50;99.90;;;;;;5024838;28;20234;-71
2022/11/16 00:41:40;;;;;;;33.90;18.10;;;5.50;99.90;;;;;;5035873;28;20912;-69
2022/11/16 00:44:06;;;;;;;34.80;18.23;;;5.40;99.90;;;;;;5032560;28;20407;-69
2022/11/16 00:46:32;;;;;;;43.53;17.90;;;5.40;99.90;;;;;;5032249;28;20417;-69
2022/11/16 00:48:57;;;;;;;36.43;19.00;;;5.40;99.90;;;;;;5025616;28;20276;-68
2022/11/16 00:51:23;;;;;;;47.67;20.20;;;5.40;99.90;;;;;;5017953;28;20238;-68
2022/11/16 00:53:48;;;;;;;35.03;21.20;;;5.40;99.90;;;;;;5022089;28;20176;-68
2022/11/16 00:56:14;;;;;;;38.13;17.07;;;5.40;99.90;;;;;;5014125;28;20592;-69
2022/11/16 00:58:40;;;;;;;37.10;19.23;;;5.40;99.90;;;;;;5024932;28;20184;-70
2022/11/16 01:01:07;;;;;;;40.03;19.00;;;5.40;99.90;;;;;;5020198;28;20188;-68
2022/11/16 01:03:34;;;;;;;39.20;18.53;;;5.30;99.90;;;;;;5032581;28;20167;-69
2022/11/16 01:06:01;;;;;;;39.27;22.83;;;5.30;99.90;;;;;;5027055;28;20419;-70
2022/11/16 01:08:27;;;;;;;35.07;19.93;;;5.30;99.90;;;;;;5027300;28;20437;-69
2022/11/16 01:10:53;;;;;;;38.80;18.07;;;5.30;99.90;;;;;;5031589;28;20823;-69
2022/11/16 01:13:18;;;;;;;38.33;17.53;;;5.30;99.90;;;;;;5032461;28;21040;-69
2022/11/16 01:15:47;;;;;;;38.60;17.47;;;5.30;99.90;;;;;;5017259;28;20174;-68
2022/11/16 01:18:13;;;;;;;32.23;18.90;;;5.40;99.90;;;;;;5020671;28;20180;-69
2022/11/16 01:20:39;;;;;;;32.23;17.77;;;5.40;99.90;;;;;;5024676;28;20444;-69
2022/11/16 01:23:05;;;;;;;37.70;19.23;;;5.40;99.90;;;;;;5011218;28;20183;-70
2022/11/16 01:25:31;;;;;;;31.63;18.27;;;5.40;99.90;;;;;;5014111;28;20415;-70
2022/11/16 01:27:57;;;;;;;41.10;20.20;;;5.40;99.90;;;;;;5020809;28;20207;-69
2022/11/16 01:30:23;;;;;;;38.80;20.07;;;5.40;99.90;;;;;;5031400;28;20191;-69
2022/11/16 01:32:48;;;;;;;35.37;18.00;;;5.40;99.90;;;;;;5023465;28;20469;-69
2022/11/16 01:35:17;;;;;;;33.87;18.03;;;5.40;99.90;;;;;;5026574;28;20326;-69
2022/11/16 01:37:43;;;;;;;44.33;21.60;;;5.40;99.90;;;;;;5014192;28;20180;-70
2022/11/16 01:40:10;;;;;;;36.40;19.80;;;5.50;99.90;;;;;;5021666;28;20445;-69
2022/11/16 01:42:36;;;;;;;39.90;20.17;;;5.50;99.90;;;;;;5011851;28;20490;-71
2022/11/16 01:45:20;;;;;;;40.40;19.80;;;5.50;99.90;;;;;;5024294;28;20501;-70
2022/11/16 01:47:46;;;;;;;39.60;19.53;;;5.50;99.90;;;;;;5021095;28;20439;-70
2022/11/16 01:50:15;;;;;;;35.27;19.50;;;5.40;99.90;;;;;;5013046;28;20534;-70
2022/11/16 01:52:53;;;;;;;34.20;18.53;;;5.40;99.90;;;;;;5016066;28;20953;-69
2022/11/16 01:55:19;;;;;;;34.93;17.50;;;5.40;99.90;;;;;;5010827;28;20462;-69
2022/11/16 01:57:46;;;;;;;46.60;20.73;;;5.40;99.90;;;;;;5011837;28;20419;-69
2022/11/16 02:00:13;;;;;;;31.90;18.27;;;5.40;99.90;;;;;;5031209;28;20822;-69
2022/11/16 02:02:38;;;;;;;29.87;17.30;;;5.30;99.90;;;;;;5029459;28;20434;-69
2022/11/16 02:05:05;;;;;;;41.40;20.17;;;5.40;99.90;;;;;;5024869;28;20790;-69
2022/11/16 02:10:50;;;;;;;34.43;18.23;;;5.40;99.90;;;;;;5020732;28;20497;-70
2022/11/16 02:13:26;;;;;;;38.57;20.80;;;5.30;99.90;;;;;;4992860;28;20876;-69
2022/11/16 02:16:19;;;;;;;40.63;18.57;;;5.30;99.90;;;;;;5029596;28;20989;-69
2022/11/16 02:19:15;;;;;;;32.90;17.70;;;5.30;99.90;;;;;;5019863;28;20420;-69
2022/11/16 02:21:45;;;;;;;39.93;17.10;;;5.30;99.90;;;;;;5024996;28;20500;-70
2022/11/16 02:24:32;;;;;;;34.40;19.73;;;5.30;99.90;;;;;;5013043;28;20423;-69
2022/11/16 02:27:13;;;;;;;38.67;17.87;;;5.30;99.90;;;;;;5018562;28;20429;-70
2022/11/16 02:29:43;;;;;;;32.93;18.13;;;5.30;99.90;;;;;;5023824;28;20474;-70
2022/11/16 02:32:33;;;;;;;39.03;19.13;;;5.30;99.90;;;;;;5029827;28;20864;-70
2022/11/16 02:35:17;;;;;;;28.13;16.63;;;5.30;99.90;;;;;;5029352;28;20430;-70
2022/11/16 02:37:57;;;;;;;36.27;19.40;;;5.30;99.90;;;;;;5015585;28;20422;-70
2022/11/16 02:40:29;;;;;;;29.27;17.17;;;5.20;99.90;;;;;;5011450;28;20434;-69
2022/11/16 02:43:11;;;;;;;38.23;19.10;;;5.20;99.90;;;;;;5018187;28;20430;-68
2022/11/16 02:45:41;;;;;;;35.03;19.10;;;5.20;99.90;;;;;;5017193;28;20434;-70
2022/11/16 02:48:15;;;;;;;42.07;17.33;;;5.20;99.90;;;;;;5013773;28;20440;-69
2022/11/16 02:50:42;;;;;;;46.63;18.20;;;5.20;99.90;;;;;;5031547;28;20439;-70
2022/11/16 02:53:08;;;;;;;46.00;19.87;;;5.20;99.90;;;;;;5029748;28;20515;-69
2022/11/16 02:55:35;;;;;;;47.73;22.33;;;5.20;99.90;;;;;;5021615;28;20449;-68
2022/11/16 02:58:04;;;;;;;36.67;18.43;;;5.20;99.90;;;;;;5025269;28;20199;-68
2022/11/16 03:00:42;;;;;;;35.83;19.50;;;5.20;99.90;;;;;;5032161;28;20437;-69
2022/11/16 03:03:25;;;;;;;45.70;20.27;;;5.20;99.90;;;;;;5033137;28;20425;-69
2022/11/16 03:06:00;;;;;;;38.20;19.37;;;5.20;99.90;;;;;;5018086;28;20411;-71
2022/11/16 03:08:34;;;;;;;44.53;20.47;;;5.10;99.90;;;;;;5026385;28;20496;-70
2022/11/16 03:13:48;;;;;;;35.90;18.93;;;5.10;99.90;;;;;;5030803;28;20418;-70
2022/11/16 03:16:25;;;;;;;37.50;22.67;;;5.10;99.90;;;;;;5016651;28;20541;-72
2022/11/16 03:18:53;;;;;;;42.37;22.37;;;5.10;99.90;;;;;;5014180;28;20998;-70
2022/11/16 03:21:26;;;;;;;37.23;19.87;;;5.10;99.90;;;;;;5017311;28;20933;-70
2022/11/16 03:23:53;;;;;;;45.20;19.37;;;5.20;99.90;;;;;;5026704;28;20433;-71
2022/11/16 03:26:23;;;;;;;40.10;22.50;;;5.20;99.90;;;;;;5023677;28;20410;-70
2022/11/16 03:28:57;;;;;;;43.27;21.60;;;5.20;99.90;;;;;;5033918;28;20410;-71
2022/11/16 03:31:29;;;;;;;39.10;19.60;;;5.10;99.90;;;;;;5034131;28;20450;-71
2022/11/16 03:33:58;;;;;;;41.80;20.67;;;5.20;99.90;;;;;;5015218;28;20419;-70
2022/11/16 03:36:31;;;;;;;53.70;19.70;;;5.20;99.90;;;;;;5031392;28;20418;-69
2022/11/16 03:39:05;;;;;;;39.07;20.70;;;5.20;99.90;;;;;;5019930;28;20506;-74
2022/11/16 03:41:34;;;;;;;49.43;21.00;;;5.20;99.90;;;;;;5031143;28;20988;-70
2022/11/16 03:44:00;;;;;;;52.43;23.40;;;5.20;99.90;;;;;;5020144;28;20519;-71
2022/11/16 03:46:26;;;;;;;44.97;20.53;;;5.20;99.90;;;;;;5032438;28;20402;-70
2022/11/16 03:48:58;;;;;;;58.37;25.33;;;5.20;99.90;;;;;;5032590;28;20429;-71
2022/11/16 03:51:24;;;;;;;48.03;21.23;;;5.30;99.90;;;;;;5022541;28;20213;-71
2022/11/16 03:53:50;;;;;;;41.57;21.00;;;5.30;99.90;;;;;;5014860;28;20415;-71
2022/11/16 03:56:16;;;;;;;48.90;22.07;;;5.30;99.90;;;;;;5022825;28;20415;-70
2022/11/16 03:58:42;;;;;;;50.10;23.70;;;5.30;99.90;;;;;;5024766;28;20445;-71
2022/11/16 04:01:07;;;;;;;48.80;24.93;;;5.30;99.90;;;;;;5031906;28;20200;-70
2022/11/16 04:03:33;;;;;;;54.03;26.50;;;5.30;99.90;;;;;;5027758;28;20446;-71
2022/11/16 04:25:50;;;;;;;46.80;24.60;;;5.40;99.90;;;;;;5014461;28;20508;-72
2022/11/16 04:28:18;;;;;;;45.40;22.77;;;5.40;99.90;;;;;;5029166;28;20422;-70
2022/11/16 04:39:00;;;;;;;48.83;22.00;;;5.50;99.90;;;;;;5032557;28;20440;-71
2022/11/16 04:44:10;;;;;;;49.87;22.97;;;5.50;99.90;;;;;;5029338;28;20198;-73
2022/11/16 04:49:19;;;;;;;54.47;23.30;;;5.60;99.90;;;;;;5032418;28;20175;-70
2022/11/16 04:51:45;;;;;;;53.23;22.73;;;5.60;99.90;;;;;;5023873;28;20451;-70
2022/11/16 04:54:11;;;;;;;54.20;24.30;;;5.60;99.90;;;;;;5004938;28;20191;-71
2022/11/16 04:56:36;;;;;;;59.63;22.97;;;5.60;99.90;;;;;;5030649;28;20195;-74
2022/11/16 04:59:02;;;;;;;51.47;23.47;;;5.70;99.90;;;;;;5030462;28;20168;-72
2022/11/16 05:04:11;;;;;;;51.63;21.70;;;5.70;99.90;;;;;;5025313;28;20186;-70
2022/11/16 05:06:37;;;;;;;68.53;25.27;;;5.70;99.90;;;;;;5024541;28;20414;-70
2022/11/16 05:09:02;;;;;;;67.80;27.27;;;5.70;99.90;;;;;;5011101;28;20176;-75
2022/11/16 05:11:28;;;;;;;54.67;22.07;;;5.80;99.90;;;;;;5027374;28;20734;-71
2022/11/16 05:13:54;;;;;;;57.43;24.87;;;5.80;99.90;;;;;;5012467;28;20553;-70
2022/11/16 05:16:19;;;;;;;58.83;26.80;;;5.80;99.90;;;;;;4998759;28;20198;-71
2022/11/16 05:20:59;;;;;;;59.93;23.90;;;5.80;99.90;;;;;;5030077;28;20218;-69
2022/11/16 05:21:30;;;;;;;66.37;25.70;;;5.90;99.90;;;;;;5014774;28;20180;-70
2022/11/16 05:26:40;;;;;;;63.63;25.23;;;5.90;99.90;;;;;;5024161;28;20186;-70
2022/11/16 05:29:05;;;;;;;56.73;26.30;;;5.90;99.90;;;;;;5018912;28;20420;-73
2022/11/16 05:31:31;;;;;;;54.50;25.40;;;5.90;99.90;;;;;;5010325;28;20188;-69
2022/11/16 05:33:56;;;;;;;77.03;27.90;;;5.90;99.90;;;;;;4999487;28;20180;-71
2022/11/16 05:36:22;;;;;;;62.10;24.33;;;6.00;99.90;;;;;;5011783;28;20175;-71
2022/11/16 05:38:48;;;;;;;54.33;24.10;;;6.00;99.90;;;;;;5012194;28;20609;-72
2022/11/16 05:41:13;;;;;;;68.83;26.00;;;6.00;99.90;;;;;;5017951;28;20191;-71
2022/11/16 05:43:39;;;;;;;62.57;23.47;;;6.00;99.90;;;;;;5024648;28;20780;-70
2022/11/16 05:46:04;;;;;;;63.90;25.93;;;6.00;99.90;;;;;;5012213;28;20169;-70
2022/11/16 05:48:30;;;;;;;64.37;26.07;;;6.00;99.90;;;;;;4994108;28;20206;-70
2022/11/16 05:50:59;;;;;;;60.90;26.53;;;6.00;99.90;;;;;;5010940;28;20204;-70
2022/11/16 05:53:24;;;;;;;61.57;26.10;;;6.10;99.90;;;;;;5020643;28;20211;-72
2022/11/16 05:55:50;;;;;;;60.10;24.27;;;6.10;99.90;;;;;;4992940;28;20832;-72
2022/11/16 05:58:16;;;;;;;64.33;25.90;;;6.10;99.90;;;;;;5015156;28;20204;-70
2022/11/16 06:00:41;;;;;;;58.10;26.00;;;6.10;99.90;;;;;;5020777;28;20274;-70
2022/11/16 06:03:07;;;;;;;60.47;26.63;;;6.20;99.90;;;;;;5022182;28;20658;-71
2022/11/16 06:05:35;;;;;;;89.83;28.97;;;6.20;99.90;;;;;;5014347;28;20169;-71
2022/11/16 06:08:01;;;;;;;83.10;30.47;;;6.20;99.90;;;;;;5011691;28;20257;-70
2022/11/16 06:10:27;;;;;;;57.43;26.07;;;6.20;99.90;;;;;;5017336;28;20466;-72
2022/11/16 06:12:52;;;;;;;51.53;26.20;;;6.20;99.90;;;;;;5031104;28;20230;-70
2022/11/16 06:15:18;;;;;;;72.27;26.40;;;6.20;99.90;;;;;;5021951;28;20246;-71
2022/11/16 06:17:43;;;;;;;68.27;25.30;;;6.20;99.90;;;;;;5020399;28;20251;-70
2022/11/16 06:20:10;;;;;;;73.53;25.60;;;6.20;99.90;;;;;;5031965;28;20274;-71
2022/11/16 06:22:35;;;;;;;85.77;29.63;;;6.30;99.90;;;;;;5026297;28;20172;-71
2022/11/16 06:25:01;;;;;;;57.73;23.97;;;6.30;99.90;;;;;;5026298;28;20406;-71
2022/11/16 06:27:27;;;;;;;62.67;24.00;;;6.30;99.90;;;;;;5024698;28;20535;-72
2022/11/16 06:29:52;;;;;;;64.67;25.37;;;6.30;99.90;;;;;;5033563;28;20199;-71
2022/11/16 06:32:18;;;;;;;66.27;25.27;;;6.30;99.90;;;;;;5034561;28;20261;-70
2022/11/16 06:34:43;;;;;;;69.93;27.17;;;6.40;99.90;;;;;;5035244;28;20199;-72
2022/11/16 06:37:09;;;;;;;52.73;23.43;;;6.30;99.90;;;;;;5034968;28;20217;-70
2022/11/16 06:39:35;;;;;;;65.03;26.37;;;6.30;99.90;;;;;;5034840;28;20723;-71
2022/11/16 06:42:00;;;;;;;60.27;26.30;;;6.30;99.90;;;;;;5034950;28;20239;-71
2022/11/16 06:44:26;;;;;;;72.90;24.90;;;6.40;99.90;;;;;;5029570;28;20182;-72
2022/11/16 06:46:51;;;;;;;59.10;23.50;;;6.30;99.90;;;;;;5033138;28;20646;-71
2022/11/16 06:49:17;;;;;;;51.10;22.13;;;6.40;99.90;;;;;;5035113;28;20171;-72
2022/11/16 06:51:42;;;;;;;76.53;29.27;;;6.30;99.90;;;;;;5034824;28;20187;-71
2022/11/16 06:54:08;;;;;;;61.63;23.23;;;6.40;99.90;;;;;;5034809;28;20167;-72
2022/11/16 06:56:34;;;;;;;72.70;29.07;;;6.30;99.90;;;;;;5034534;28;20191;-70
2022/11/16 06:59:00;;;;;;;69.80;24.93;;;6.30;99.90;;;;;;5022630;28;20842;-73
2022/11/16 07:01:25;;;;;;;65.23;28.27;;;6.40;99.90;;;;;;5026160;28;20433;-72
2022/11/16 07:03:51;;;;;;;66.07;24.80;;;6.30;99.90;;;;;;5027601;28;20605;-72
2022/11/16 07:06:17;;;;;;;64.87;26.27;;;6.30;99.90;;;;;;5027298;28;20960;-72
2022/11/16 07:08:42;;;;;;;70.47;26.00;;;6.30;99.90;;;;;;5014563;28;20172;-73
2022/11/16 07:11:09;;;;;;;61.83;25.53;;;6.30;99.90;;;;;;5020917;28;20207;-71
2022/11/16 07:13:36;;;;;;;62.80;26.13;;;6.30;99.90;;;;;;5034175;28;20283;-73
2022/11/16 07:16:06;;;;;;;73.10;25.37;;;6.30;99.90;;;;;;5033194;28;20413;-72
2022/11/16 07:18:37;;;;;;;69.00;26.77;;;6.30;99.90;;;;;;5017264;28;20411;-72
2022/11/16 07:21:11;;;;;;;63.07;27.17;;;6.40;99.90;;;;;;5028486;28;20963;-74
2022/11/16 07:23:37;;;;;;;67.00;25.30;;;6.40;99.90;;;;;;5013615;28;20826;-74
2022/11/16 07:26:05;;;;;;;57.57;24.73;;;6.40;99.90;;;;;;5030129;28;20423;-73
2022/11/16 07:28:30;;;;;;;68.70;24.90;;;6.40;99.90;;;;;;5033670;28;20473;-72
2022/11/16 07:31:04;;;;;;;73.03;27.23;;;6.40;99.90;;;;;;5023820;28;20442;-72
2022/11/16 07:33:29;;;;;;;77.23;28.40;;;6.40;99.90;;;;;;5015625;28;20210;-73
2022/11/16 07:36:07;;;;;;;61.77;26.13;;;6.40;99.90;;;;;;5019071;28;20494;-71
2022/11/16 07:38:33;;;;;;;67.27;26.87;;;6.30;99.90;;;;;;5027601;28;20183;-73
2022/11/16 07:41:03;;;;;;;57.30;24.27;;;6.40;99.90;;;;;;5022185;28;20465;-73
2022/11/16 07:43:39;;;;;;;75.03;29.30;;;6.40;99.90;;;;;;5012894;28;20423;-73
2022/11/16 07:46:13;;;;;;;74.73;27.00;;;6.30;99.90;;;;;;5014113;28;20427;-72
2022/11/16 07:48:41;;;;;;;68.23;26.50;;;6.40;99.90;;;;;;5024795;28;20417;-72
2022/11/16 07:51:09;;;;;;;69.50;25.30;;;6.30;99.90;;;;;;5033981;28;20434;-72
2022/11/16 07:53:35;;;;;;;82.70;34.83;;;6.40;99.90;;;;;;4991322;28;20458;-72
2022/11/16 07:56:01;;;;;;;67.87;23.63;;;6.40;99.90;;;;;;5013724;28;20916;-72
2022/11/16 07:58:28;;;;;;;58.07;25.97;;;6.40;99.90;;;;;;5020419;28;20464;-72
2022/11/16 08:00:54;;;;;;;62.60;27.63;;;6.40;99.90;;;;;;5029990;28;20491;-74
2022/11/16 08:03:20;;;;;;;65.20;24.20;;;6.40;99.90;;;;;;5034016;28;20904;-74
2022/11/16 08:05:46;;;;;;;64.40;25.03;;;6.40;99.90;;;;;;5032574;28;20175;-73
2022/11/16 08:08:11;;;;;;;75.47;26.17;;;6.50;99.90;;;;;;5014328;28;20212;-72
2022/11/16 08:10:37;;;;;;;66.87;25.60;;;6.40;99.90;;;;;;5033211;28;20964;-72
2022/11/16 08:13:03;;;;;;;54.50;21.87;;;6.50;99.90;;;;;;5026377;28;20646;-72
2022/11/16 08:15:29;;;;;;;56.33;25.03;;;6.50;99.90;;;;;;5032873;28;20258;-72
2022/11/16 08:17:57;;;;;;;61.40;23.00;;;6.50;99.90;;;;;;5019612;28;20442;-72
2022/11/16 08:20:22;;;;;;;71.67;24.47;;;6.50;99.90;;;;;;5031829;28;20191;-72
2022/11/16 08:22:48;;;;;;;69.80;26.90;;;6.50;99.90;;;;;;5032047;28;20493;-73
2022/11/16 08:25:14;;;;;;;61.27;22.37;;;6.50;99.90;;;;;;5031871;28;20414;-72
2022/11/16 08:27:40;;;;;;;50.37;22.20;;;6.40;99.90;;;;;;5015174;28;20534;-71
2022/11/16 08:30:08;;;;;;;62.20;24.70;;;6.40;99.90;;;;;;5031763;28;20462;-73
2022/11/16 08:32:35;;;;;;;59.10;23.90;;;6.40;99.90;;;;;;5032987;28;20200;-73
2022/11/16 08:35:00;;;;;;;46.87;20.30;;;6.50;99.90;;;;;;5014889;28;20755;-72
2022/11/16 08:37:27;;;;;;;54.30;25.10;;;6.40;99.90;;;;;;5026563;28;20448;-71
2022/11/16 08:39:53;;;;;;;62.30;22.67;;;6.40;99.90;;;;;;5031182;28;20270;-73
2022/11/16 08:42:19;;;;;;;45.73;21.60;;;6.40;99.90;;;;;;5031814;28;20398;-72
2022/11/16 08:44:45;;;;;;;53.40;22.23;;;6.50;99.90;;;;;;5031293;28;20461;-72
2022/11/16 08:47:11;;;;;;;47.47;21.50;;;6.50;99.90;;;;;;5031487;28;20808;-71
2022/11/16 08:49:36;;;;;;;50.33;21.07;;;6.50;99.90;;;;;;5014181;28;20206;-73
2022/11/16 08:52:02;;;;;;;53.40;21.50;;;6.50;99.90;;;;;;5028278;28;20686;-72
2022/11/16 08:54:28;;;;;;;53.00;20.90;;;6.50;99.90;;;;;;5028768;28;20179;-72
2022/11/16 08:56:54;;;;;;;48.30;17.93;;;6.50;99.90;;;;;;5031982;28;20398;-72
2022/11/16 08:59:20;;;;;;;51.00;19.97;;;6.40;99.90;;;;;;5032373;28;20394;-73
2022/11/16 09:01:45;;;;;;;45.47;20.00;;;6.50;99.90;;;;;;5032223;28;20167;-72
2022/11/16 09:04:11;;;;;;;45.40;18.27;;;6.50;99.90;;;;;;5032133;28;20309;-72
2022/11/16 09:06:37;;;;;;;43.97;19.77;;;6.50;99.90;;;;;;5024178;28;20179;-71
2022/11/16 09:09:03;;;;;;;41.40;20.47;;;6.50;99.90;;;;;;5028096;28;20406;-72
2022/11/16 09:11:28;;;;;;;51.30;19.90;;;6.50;99.90;;;;;;5023321;28;20203;-72
2022/11/16 09:13:55;;;;;;;41.90;18.37;;;6.50;99.90;;;;;;5030591;28;21115;-72
2022/11/16 09:16:22;;;;;;;36.67;18.90;;;6.50;99.90;;;;;;5031945;28;20546;-72
2022/11/16 09:18:50;;;;;;;31.57;15.83;;;6.50;99.90;;;;;;5032239;28;20492;-72
2022/11/16 09:21:20;;;;;;;42.37;17.87;;;6.50;99.90;;;;;;5031828;28;20418;-72
2022/11/16 09:23:47;;;;;;;37.60;17.43;;;6.50;99.90;;;;;;5059934;22;20502;-63
2022/11/16 09:26:13;;;;;;;45.93;20.23;;;6.50;99.90;;;;;;5031306;28;20415;-66
2022/11/16 09:28:39;;;;;;;39.73;16.07;;;6.60;99.90;;;;;;5027403;28;20441;-65
2022/11/16 09:31:05;;;;;;;32.83;13.70;;;6.50;99.90;;;;;;5028860;28;20418;-64
2022/11/16 09:33:32;;;;;;;34.77;16.27;;;6.50;99.90;;;;;;5031419;28;20286;-65
2022/11/16 09:36:05;;;;;;;29.83;11.00;;;6.50;99.90;;;;;;5031421;28;20536;-65
2022/11/16 09:38:39;;;;;;;22.00;14.40;;;6.50;99.90;;;;;;5024705;28;20521;-68
2022/11/16 09:41:12;;;;;;;24.83;11.87;;;6.50;99.90;;;;;;5018943;28;20828;-65
2022/11/16 09:43:50;;;;;;;25.93;13.20;;;6.50;99.90;;;;;;5026903;28;20449;-65
2022/11/16 09:46:30;;;;;;;18.57;11.00;;;6.50;99.90;;;;;;5029703;28;20432;-69
2022/11/16 09:48:59;;;;;;;26.27;14.00;;;6.50;99.90;;;;;;5028146;28;20522;-65
2022/11/16 09:51:28;;;;;;;30.47;13.37;;;6.50;99.90;;;;;;5031238;28;20560;-65
2022/11/16 09:54:06;;;;;;;24.30;12.03;;;6.50;99.90;;;;;;5030940;28;20513;-65
2022/11/16 09:56:36;;;;;;;27.50;13.30;;;6.50;99.90;;;;;;5029932;28;20488;-65
2022/11/16 09:59:07;;;;;;;26.10;13.40;;;6.50;99.90;;;;;;5029496;28;20414;-65
2022/11/16 10:01:41;;;;;;;27.63;12.83;;;6.50;99.90;;;;;;5030884;28;20398;-65
2022/11/16 10:04:16;;;;;;;24.73;13.17;;;6.50;99.90;;;;;;5031116;28;20422;-65
2022/11/16 10:06:47;;;;;;;36.23;15.00;;;6.50;99.90;;;;;;5030880;28;20428;-64
2022/11/16 10:09:13;;;;;;;24.40;13.10;;;6.50;99.90;;;;;;5031881;28;20409;-64
2022/11/16 10:12:11;;;;;;;22.73;15.20;;;6.50;99.90;;;;;;5032050;28;20454;-65
2022/11/16 10:15:00;;;;;;;29.80;12.83;;;6.40;99.90;;;;;;5030735;28;20551;-65
2022/11/16 10:17:48;;;;;;;32.47;13.93;;;6.40;99.90;;;;;;5030973;28;20402;-67
2022/11/16 10:20:13;;;;;;;30.03;15.83;;;6.50;99.90;;;;;;5031315;28;20406;-66
2022/11/16 10:22:39;;;;;;;26.23;14.80;;;6.50;99.90;;;;;;5030659;28;20461;-64
2022/11/16 10:25:15;;;;;;;28.97;14.90;;;6.40;99.90;;;;;;5030152;28;20179;-64
2022/11/16 10:27:58;;;;;;;38.17;15.57;;;6.40;99.90;;;;;;5030752;28;20179;-64
2022/11/16 10:30:24;;;;;;;23.70;13.97;;;6.40;99.90;;;;;;5031142;28;21044;-64
2022/11/16 10:32:58;;;;;;;25.53;12.80;;;6.50;99.90;;;;;;5029796;28;20472;-64
2022/11/16 10:35:31;;;;;;;29.80;13.77;;;6.40;99.90;;;;;;5016112;28;20496;-64
2022/11/16 10:38:01;;;;;;;25.87;15.10;;;6.30;99.90;;;;;;5030543;28;20409;-64
2022/11/16 10:40:36;;;;;;;29.73;14.00;;;6.30;99.90;;;;;;5030809;28;20808;-65
2022/11/16 10:43:12;;;;;;;29.40;13.80;;;6.40;99.90;;;;;;5030914;28;20438;-65
2022/11/16 10:45:39;;;;;;;29.43;15.80;;;6.40;99.90;;;;;;5030827;28;20410;-65
2022/11/16 10:48:50;;;;;;;28.67;15.40;;;6.40;99.90;;;;;;5029779;28;20430;-63
2022/11/16 10:51:15;;;;;;;28.87;15.93;;;6.40;99.90;;;;;;5005785;28;20935;-64
2022/11/16 10:53:43;;;;;;;35.00;17.47;;;6.40;99.90;;;;;;5030255;28;20470;-64
2022/11/16 10:56:30;;;;;;;32.13;17.00;;;6.40;99.90;;;;;;5030447;28;20519;-63
2022/11/16 10:59:02;;;;;;;26.87;15.50;;;6.40;99.90;;;;;;5030290;28;20927;-65
2022/11/16 11:01:35;;;;;;;27.90;15.53;;;6.40;99.90;;;;;;5030449;28;20954;-64
2022/11/16 11:04:16;;;;;;;39.63;16.40;;;6.40;99.90;;;;;;5029753;28;20529;-64
2022/11/16 11:06:43;;;;;;;32.37;15.33;;;6.40;99.90;;;;;;5024468;28;20963;-64
2022/11/16 11:09:35;;;;;;;26.20;15.87;;;6.50;99.90;;;;;;5034892;28;21071;-64
2022/11/16 11:12:37;;;;;;;27.87;14.07;;;6.50;99.90;;;;;;5032498;28;20465;-64
2022/11/16 11:15:21;;;;;;;22.30;13.40;;;6.50;99.90;;;;;;5013016;28;20430;-65
2022/11/16 11:17:49;;;;;;;33.23;15.17;;;6.60;99.90;;;;;;5027109;28;20445;-67
2022/11/16 11:20:15;;;;;;;35.73;16.73;;;6.60;99.90;;;;;;5022060;28;20431;-64
2022/11/16 11:22:42;;;;;;;32.83;18.13;;;6.60;99.90;;;;;;5019280;28;21074;-64
2022/11/16 11:25:21;;;;;;;33.60;17.93;;;6.60;99.90;;;;;;5030835;28;20628;-64
2022/11/16 11:27:48;;;;;;;30.60;15.90;;;6.60;99.90;;;;;;5028350;28;20430;-65
2022/11/16 11:30:21;;;;;;;43.43;16.63;;;6.60;99.90;;;;;;5034192;28;20453;-64
2022/11/16 11:32:47;;;;;;;38.57;17.80;;;6.60;99.90;;;;;;5032860;28;20515;-65
2022/11/16 11:35:26;;;;;;;26.57;15.23;;;6.60;99.90;;;;;;5031692;28;20454;-65
2022/11/16 11:37:54;;;;;;;30.17;16.10;;;6.60;99.90;;;;;;5032751;28;20506;-65
2022/11/16 11:40:25;;;;;;;32.07;19.30;;;6.60;99.90;;;;;;5032517;28;20438;-65
2022/11/16 11:42:59;;;;;;;37.07;18.27;;;6.60;99.90;;;;;;5023961;28;20469;-65
2022/11/16 11:45:37;;;;;;;30.83;18.40;;;6.60;99.90;;;;;;5031508;28;20497;-65
2022/11/16 11:48:35;;;;;;;31.07;16.17;;;6.60;99.90;;;;;;5032444;28;20564;-65
2022/11/16 11:51:20;;;;;;;29.87;16.73;;;6.60;99.90;;;;;;5033721;28;21038;-65
2022/11/16 11:53:56;;;;;;;31.83;18.00;;;6.60;99.90;;;;;;5033194;28;20458;-66
2022/11/16 11:56:23;;;;;;;28.10;16.43;;;6.70;99.90;;;;;;5032114;28;20429;-64
2022/11/16 11:58:50;;;;;;;30.17;18.30;;;6.70;99.90;;;;;;5032803;28;20422;-65
2022/11/16 12:01:49;;;;;;;34.87;18.73;;;6.60;99.90;;;;;;5031801;28;20415;-65
2022/11/16 12:04:50;;;;;;;29.87;16.03;;;6.70;99.90;;;;;;5033380;28;20477;-65
2022/11/16 12:07:27;;;;;;;33.00;16.77;;;6.70;99.90;;;;;;5020017;28;20525;-65
2022/11/16 12:10:39;;;;;;;32.57;19.20;;;6.80;99.90;;;;;;5011943;28;20446;-65
2022/11/16 12:13:29;;;;;;;34.83;15.90;;;6.70;99.90;;;;;;4931697;29;20860;-65
2022/11/16 12:16:04;;;;;;;33.13;17.97;;;6.80;99.90;;;;;;5013612;28;20468;-65
2022/11/16 12:18:59;;;;;;;30.70;17.60;;;6.80;99.90;;;;;;5032170;28;20912;-65
2022/11/16 12:22:05;;;;;;;30.57;14.47;;;6.80;99.90;;;;;;5033045;28;20402;-65
2022/11/16 12:24:53;;;;;;;25.63;15.63;;;6.70;99.90;;;;;;5024194;28;20508;-65
2022/11/16 12:27:42;;;;;;;35.20;16.10;;;6.80;99.90;;;;;;5012405;28;20443;-65
2022/11/16 12:30:17;;;;;;;30.47;16.03;;;6.70;99.90;;;;;;5012557;28;20902;-64
2022/11/16 12:33:01;;;;;;;34.37;18.00;;;6.80;99.90;;;;;;5021815;28;20462;-65
2022/11/16 12:35:38;;;;;;;23.00;14.33;;;6.80;99.90;;;;;;5030983;28;20403;-65
2022/11/16 12:38:28;;;;;;;28.10;15.40;;;6.80;99.90;;;;;;5032704;28;20394;-65
2022/11/16 12:41:03;;;;;;;27.07;15.50;;;6.80;99.90;;;;;;5031876;28;20447;-65
2022/11/16 12:43:38;;;;;;;28.50;16.20;;;6.80;99.90;;;;;;5032688;28;20429;-65
2022/11/16 12:46:36;;;;;;;26.20;15.67;;;6.80;99.90;;;;;;5032622;28;20416;-65
2022/11/16 12:49:26;;;;;;;25.53;14.93;;;6.80;99.90;;;;;;5018116;28;20427;-65
2022/11/16 12:52:29;;;;;;;23.20;14.77;;;6.80;99.90;;;;;;5023465;28;20468;-66
2022/11/16 12:55:06;;;;;;;20.40;14.57;;;6.90;99.90;;;;;;4932174;29;20800;-65
2022/11/16 12:57:56;;;;;;;29.70;15.90;;;6.90;99.90;;;;;;5002124;28;21041;-70
2022/11/16 13:00:21;;;;;;;28.67;16.03;;;6.80;99.90;;;;;;5018237;28;20410;-65
2022/11/16 13:03:45;;;;;;;25.30;16.80;;;6.80;99.90;;;;;;5032569;28;20441;-62
2022/11/16 13:06:17;;;;;;;30.00;15.97;;;6.90;99.90;;;;;;4944274;28;20210;-65
2022/11/16 13:09:01;;;;;;;29.40;15.30;;;6.90;99.90;;;;;;4950320;29;20422;-65
2022/11/16 13:11:38;;;;;;;26.20;15.10;;;6.90;99.90;;;;;;5000592;28;20422;-65
2022/11/16 13:14:11;;;;;;;25.30;13.80;;;6.90;99.90;;;;;;5031576;28;20445;-65
2022/11/16 13:16:37;;;;;;;25.60;17.07;;;6.90;99.90;;;;;;5031820;28;20444;-66
2022/11/16 13:19:06;;;;;;;21.47;14.07;;;6.90;99.90;;;;;;5030987;28;20422;-66
2022/11/16 13:21:34;;;;;;;19.17;13.00;;;6.90;99.90;;;;;;5030679;28;20556;-64
2022/11/16 13:24:10;;;;;;;26.97;14.57;;;6.90;99.90;;;;;;5024002;28;20442;-65
2022/11/16 13:26:47;;;;;;;23.40;14.73;;;6.90;99.90;;;;;;5031335;28;20488;-66
2022/11/16 13:29:38;;;;;;;23.53;12.27;;;6.90;99.90;;;;;;5031999;28;20402;-65
2022/11/16 13:32:29;;;;;;;25.17;14.43;;;7.00;99.90;;;;;;5014077;28;20453;-65
2022/11/16 13:34:56;;;;;;;22.10;15.10;;;7.00;99.90;;;;;;5031895;28;20517;-65
2022/11/16 13:37:44;;;;;;;22.00;13.70;;;7.00;99.90;;;;;;5032855;28;20781;-65
2022/11/16 13:40:24;;;;;;;24.83;14.10;;;7.00;99.90;;;;;;5030745;28;20429;-66